createdAt,value
2022-12-19T00:02:01.411Z,37.15
2022-12-19T00:04:32.386Z,42.20
2022-12-19T00:07:01.893Z,35.63
2022-12-19T00:09:30.906Z,35.50
2022-12-19T00:12:01.623Z,28.13
2022-12-19T00:14:30.595Z,30.75
2022-12-19T00:16:59.578Z,25.98
2022-12-19T00:19:28.955Z,26.23
2022-12-19T00:21:59.334Z,35.10
2022-12-19T00:24:28.398Z,27.17
2022-12-19T00:26:57.386Z,29.77
2022-12-19T00:29:30.158Z,22.42
2022-12-19T00:31:59.981Z,12.98
2022-12-19T00:34:29.040Z,7.55
2022-12-19T00:36:59.400Z,13.32
2022-12-19T00:39:30.745Z,17.90
2022-12-19T00:41:59.699Z,13.15
2022-12-19T00:44:28.680Z,10.55
2022-12-19T00:46:57.699Z,34.45
2022-12-19T00:49:26.677Z,28.90
2022-12-19T00:51:57.445Z,31.35
2022-12-19T00:54:28.128Z,18.50
2022-12-19T00:56:57.585Z,21.25
2022-12-19T00:59:27.146Z,10.90
2022-12-19T01:01:58.756Z,10.38
2022-12-19T01:04:29.267Z,5.82
2022-12-19T01:07:02.181Z,3.80
2022-12-19T01:09:37.420Z,15.52
2022-12-19T01:12:25.531Z,3.58
2022-12-19T01:15:03.940Z,8.70
2022-12-19T01:17:40.352Z,3.83
2022-12-19T01:20:19.363Z,3.53
2022-12-19T01:22:54.355Z,4.43
2022-12-19T01:25:24.704Z,12.30
2022-12-19T01:27:55.880Z,4.17
2022-12-19T01:30:24.942Z,3.72
2022-12-19T01:32:55.235Z,4.32
2022-12-19T01:35:24.604Z,9.93
2022-12-19T01:38:07.618Z,6.68
2022-12-19T01:40:39.312Z,17.48
2022-12-19T01:43:15.028Z,8.03
2022-12-19T01:45:46.022Z,6.75
2022-12-19T01:48:19.129Z,6.18
2022-12-19T01:51:02.019Z,5.00
2022-12-19T01:53:48.742Z,7.90
2022-12-19T01:56:24.121Z,7.30
2022-12-19T01:59:05.736Z,4.93
2022-12-19T02:01:48.546Z,4.68
2022-12-19T02:04:21.536Z,5.65
2022-12-19T02:06:52.133Z,6.10
2022-12-19T02:09:21.646Z,1.80
2022-12-19T02:11:53.229Z,4.82
2022-12-19T02:14:22.782Z,5.30
2022-12-19T02:16:56.143Z,1.90
2022-12-19T02:19:49.611Z,3.22
2022-12-19T02:22:26.278Z,3.03
2022-12-19T02:25:31.713Z,3.38
2022-12-19T02:28:26.989Z,8.35
2022-12-19T02:31:11.849Z,5.53
2022-12-19T02:33:52.318Z,2.58
2022-12-19T02:36:38.517Z,4.43
2022-12-19T02:39:11.804Z,8.07
2022-12-19T02:41:45.949Z,9.80
2022-12-19T02:44:26.228Z,3.15
2022-12-19T02:46:58.328Z,4.70
2022-12-19T02:49:30.567Z,6.85
2022-12-19T02:52:11.063Z,9.57
2022-12-19T02:54:44.803Z,8.65
2022-12-19T02:57:25.236Z,4.80
2022-12-19T03:00:03.999Z,11.15
2022-12-19T03:02:57.866Z,7.32
2022-12-19T03:05:36.826Z,5.13
2022-12-19T03:08:11.187Z,11.13
2022-12-19T03:10:44.330Z,8.80
2022-12-19T03:13:17.834Z,13.63
2022-12-19T03:15:47.477Z,7.95
2022-12-19T03:18:18.676Z,13.80
2022-12-19T03:20:51.667Z,6.40
2022-12-19T03:23:21.377Z,6.05
2022-12-19T03:25:57.370Z,6.75
2022-12-19T03:28:32.101Z,6.75
2022-12-19T03:31:02.986Z,7.60
2022-12-19T03:33:35.334Z,4.10
2022-12-19T03:36:09.152Z,29.58
2022-12-19T03:38:40.548Z,8.30
2022-12-19T03:43:40.195Z,3.50
2022-12-19T03:46:17.431Z,4.47
2022-12-19T03:48:49.933Z,4.82
2022-12-19T03:51:29.346Z,2.55
2022-12-19T03:54:03.379Z,2.55
2022-12-19T03:56:38.522Z,3.63
2022-12-19T03:59:12.455Z,8.18
2022-12-19T04:01:42.561Z,3.67
2022-12-19T04:04:14.734Z,4.93
2022-12-19T04:06:44.978Z,4.45
2022-12-19T04:09:19.195Z,6.10
2022-12-19T04:11:54.986Z,11.15
2022-12-19T04:14:29.538Z,8.85
2022-12-19T04:17:08.180Z,9.00
2022-12-19T04:19:45.013Z,9.40
2022-12-19T04:22:19.367Z,13.48
2022-12-19T04:24:49.556Z,10.35
2022-12-19T04:27:19.956Z,8.68
2022-12-19T04:29:53.172Z,10.15
2022-12-19T04:32:23.539Z,11.98
2022-12-19T04:34:53.914Z,10.80
2022-12-19T04:37:24.093Z,8.68
2022-12-19T04:39:53.133Z,11.13
2022-12-19T04:42:22.113Z,8.98
2022-12-19T04:44:51.099Z,10.77
2022-12-19T04:47:20.184Z,7.28
2022-12-19T04:49:49.152Z,7.45
2022-12-19T04:52:19.533Z,7.57
2022-12-19T04:54:48.525Z,8.60
2022-12-19T04:57:17.513Z,6.85
2022-12-19T04:59:46.509Z,10.25
2022-12-19T05:02:15.508Z,11.02
2022-12-19T05:04:44.524Z,9.32
2022-12-19T05:07:14.847Z,10.10
2022-12-19T05:09:50.208Z,10.80
2022-12-19T05:12:19.265Z,8.77
2022-12-19T05:14:48.325Z,8.27
2022-12-19T05:17:17.370Z,9.73
2022-12-19T05:19:46.866Z,6.65
2022-12-19T05:22:15.851Z,7.55
2022-12-19T05:24:44.871Z,12.00
2022-12-19T05:27:15.247Z,12.60
2022-12-19T05:29:44.208Z,11.27
2022-12-19T05:32:13.229Z,12.05
2022-12-19T05:34:42.198Z,9.98
2022-12-19T05:37:11.188Z,13.55
2022-12-19T05:39:40.151Z,12.23
2022-12-19T05:42:12.298Z,9.38
2022-12-19T05:44:43.052Z,12.20
2022-12-19T05:47:12.084Z,13.02
2022-12-19T05:49:41.124Z,7.55
2022-12-19T05:52:10.163Z,6.93
2022-12-19T05:54:39.431Z,9.88
2022-12-19T05:57:08.415Z,8.07
2022-12-19T05:59:37.532Z,5.15
2022-12-19T06:02:08.004Z,6.22
2022-12-19T06:04:40.219Z,9.70
2022-12-19T06:07:09.182Z,5.82
2022-12-19T06:09:38.209Z,5.18
2022-12-19T06:12:07.862Z,6.72
2022-12-19T06:14:36.821Z,5.63
2022-12-19T06:17:07.173Z,3.97
2022-12-19T06:19:36.146Z,2.30
2022-12-19T06:22:05.178Z,3.90
2022-12-19T06:24:34.145Z,8.35
2022-12-19T06:27:03.305Z,4.95
2022-12-19T06:29:32.348Z,5.88
2022-12-19T06:32:01.368Z,7.00
2022-12-19T06:35:02.859Z,4.40
2022-12-19T06:37:20.753Z,2.85
2022-12-19T06:39:51.729Z,3.42
2022-12-19T06:42:25.619Z,6.68
2022-12-19T06:44:56.543Z,2.33
2022-12-19T06:47:26.062Z,4.40
2022-12-19T06:49:56.499Z,5.25
2022-12-19T06:52:25.843Z,5.37
2022-12-19T06:54:54.892Z,4.45
2022-12-19T06:57:23.907Z,4.88
2022-12-19T06:59:52.876Z,7.30
2022-12-19T07:02:28.656Z,6.93
2022-12-19T07:05:03.948Z,7.65
2022-12-19T07:07:33.716Z,9.13
2022-12-19T07:10:02.853Z,6.30
2022-12-19T07:12:31.825Z,4.78
2022-12-19T07:15:00.909Z,6.30
2022-12-19T07:17:30.821Z,8.80
2022-12-19T07:20:01.288Z,5.20
2022-12-19T07:22:35.543Z,7.90
2022-12-19T07:25:06.067Z,5.22
2022-12-19T07:27:36.261Z,9.93
2022-12-19T07:30:07.951Z,9.63
2022-12-19T07:32:37.536Z,7.47
2022-12-19T07:35:08.668Z,8.35
2022-12-19T07:37:37.676Z,12.07
2022-12-19T07:40:07.877Z,5.55
2022-12-19T07:42:36.959Z,7.15
2022-12-19T07:45:06.594Z,11.65
2022-12-19T07:47:35.667Z,10.73
2022-12-19T07:50:05.005Z,10.77
2022-12-19T07:52:35.357Z,10.80
2022-12-19T07:55:04.414Z,15.40
2022-12-19T07:57:33.466Z,18.67
2022-12-19T08:00:10.374Z,17.48
2022-12-19T08:02:43.410Z,13.75
2022-12-19T08:05:12.707Z,18.15
2022-12-19T08:07:43.752Z,15.57
2022-12-19T08:10:14.925Z,12.48
2022-12-19T08:12:44.065Z,14.32
2022-12-19T08:15:13.509Z,15.05
2022-12-19T08:17:42.704Z,15.77
2022-12-19T08:20:12.578Z,14.43
2022-12-19T08:22:42.968Z,18.33
2022-12-19T08:25:12.581Z,16.90
2022-12-19T08:27:42.848Z,14.10
2022-12-19T08:30:14.093Z,14.43
2022-12-19T08:32:44.736Z,12.00
2022-12-19T08:35:13.738Z,13.63
2022-12-19T08:37:44.664Z,14.63
2022-12-19T08:40:14.077Z,20.15
2022-12-19T08:42:43.482Z,20.83
2022-12-19T08:45:12.585Z,28.60
2022-12-19T08:47:41.529Z,23.15
2022-12-19T08:50:11.106Z,30.92
2022-12-19T08:52:40.071Z,31.35
2022-12-19T08:55:11.246Z,37.03
2022-12-19T08:57:40.294Z,45.17
2022-12-19T09:00:12.050Z,37.88
2022-12-19T09:02:42.413Z,40.67
2022-12-19T09:06:01.676Z,43.25
2022-12-19T09:08:01.048Z,41.88
2022-12-19T09:10:31.529Z,40.90
2022-12-19T09:13:00.455Z,48.40
2022-12-19T09:15:30.457Z,46.63
2022-12-19T09:17:59.457Z,37.20
2022-12-19T09:20:28.431Z,39.97
2022-12-19T09:22:57.437Z,39.80
2022-12-19T09:25:26.479Z,35.70
2022-12-19T09:28:26.357Z,32.80
2022-12-19T09:30:46.392Z,32.50
2022-12-19T09:33:16.055Z,27.98
2022-12-19T09:35:51.309Z,31.00
2022-12-19T09:38:22.367Z,25.15
2022-12-19T09:41:11.110Z,23.52
2022-12-19T09:43:56.285Z,23.73
2022-12-19T09:46:37.628Z,24.98
2022-12-19T09:49:14.742Z,24.73
2022-12-19T09:51:50.796Z,14.95
2022-12-19T09:54:25.247Z,17.55
2022-12-19T09:57:00.267Z,12.32
2022-12-19T09:59:41.516Z,11.57
2022-12-19T10:02:33.309Z,11.65
2022-12-19T10:05:30.475Z,10.82
2022-12-19T10:08:08.505Z,8.35
2022-12-19T10:12:38.268Z,14.93
2022-12-19T10:14:00.731Z,11.90
2022-12-19T10:16:37.767Z,13.98
2022-12-19T10:19:09.425Z,14.20
2022-12-19T10:22:16.235Z,20.05
2022-12-19T10:25:02.076Z,8.82
2022-12-19T10:28:00.038Z,21.00
2022-12-19T10:30:33.803Z,17.23
2022-12-19T10:33:20.511Z,16.83
2022-12-19T10:35:55.600Z,18.35
2022-12-19T10:38:32.874Z,18.13
2022-12-19T10:41:16.414Z,9.73
2022-12-19T10:43:53.442Z,10.63
2022-12-19T10:46:33.840Z,10.13
2022-12-19T10:49:13.408Z,11.88
2022-12-19T10:51:43.021Z,6.78
2022-12-19T10:54:12.098Z,6.35
2022-12-19T10:56:41.121Z,4.95
2022-12-19T10:59:18.184Z,7.15
2022-12-19T11:01:51.737Z,10.52
2022-12-19T11:04:35.405Z,8.38
2022-12-19T11:07:20.547Z,6.65
2022-12-19T11:10:17.988Z,9.00
2022-12-19T11:17:15.443Z,7.53
2022-12-19T11:20:13.829Z,6.57
2022-12-19T11:25:57.761Z,7.97
2022-12-19T11:30:05.876Z,3.85
2022-12-19T11:30:35.212Z,7.50
2022-12-19T11:30:41.630Z,8.10
2022-12-19T11:35:24.766Z,6.70
2022-12-19T11:37:57.654Z,4.20
2022-12-19T11:40:34.662Z,4.35
2022-12-19T11:43:43.219Z,4.13
2022-12-19T11:46:06.849Z,3.63
2022-12-19T11:48:45.357Z,1.88
2022-12-19T11:51:26.211Z,2.47
2022-12-19T11:54:03.074Z,4.38
2022-12-19T11:56:32.353Z,3.13
2022-12-19T11:59:04.021Z,2.97
2022-12-19T12:02:12.862Z,4.40
2022-12-19T12:05:09.359Z,1.92
2022-12-19T12:08:36.268Z,2.78
2022-12-19T12:17:39.198Z,3.80
2022-12-19T12:23:26.857Z,4.40
2022-12-19T12:28:38.934Z,0.98
2022-12-19T12:31:01.689Z,1.95
2022-12-19T12:31:46.923Z,4.68
2022-12-19T12:31:52.580Z,3.22
2022-12-19T12:35:40.932Z,3.42
2022-12-19T12:35:54.202Z,5.90
2022-12-19T12:41:05.195Z,2.58
2022-12-19T12:43:47.112Z,3.85
2022-12-19T12:46:21.999Z,4.40
2022-12-19T12:48:54.979Z,5.55
2022-12-19T12:51:25.849Z,4.07
2022-12-19T12:54:00.148Z,4.50
2022-12-19T12:56:30.754Z,6.05
2022-12-19T12:59:18.858Z,6.95
2022-12-19T13:01:53.494Z,2.40
2022-12-19T13:04:32.290Z,2.92
2022-12-19T13:07:28.274Z,4.57
2022-12-19T13:10:18.851Z,4.85
2022-12-19T13:13:01.595Z,4.15
2022-12-19T13:15:44.408Z,3.63
2022-12-19T13:18:35.580Z,5.35
2022-12-19T13:21:07.331Z,5.05
2022-12-19T13:23:51.200Z,8.40
2022-12-19T13:26:43.131Z,5.05
2022-12-19T13:29:30.346Z,8.05
2022-12-19T13:32:13.891Z,6.18
2022-12-19T13:35:16.544Z,4.07
2022-12-19T13:39:55.761Z,7.78
2022-12-19T13:40:55.094Z,6.22
2022-12-19T13:43:46.165Z,4.78
2022-12-19T13:46:39.454Z,4.45
2022-12-19T13:49:13.183Z,5.15
2022-12-19T13:51:44.456Z,5.65
2022-12-19T13:54:24.690Z,0.63
2022-12-19T13:56:54.295Z,0.77
2022-12-19T13:59:25.428Z,0.70
2022-12-19T14:01:56.717Z,1.73
2022-12-19T14:07:02.449Z,1.88
2022-12-19T14:11:27.228Z,1.73
2022-12-19T14:13:54.055Z,2.60
2022-12-19T14:15:36.119Z,1.92
2022-12-19T14:18:44.269Z,2.85
2022-12-19T14:22:10.608Z,1.15
2022-12-19T14:24:16.458Z,2.15
2022-12-19T14:28:19.203Z,2.13
2022-12-19T14:30:27.865Z,2.28
2022-12-19T14:33:43.497Z,1.73
2022-12-19T14:36:08.326Z,2.58
2022-12-19T14:39:23.438Z,1.70
2022-12-19T14:41:40.518Z,3.22
2022-12-19T14:54:01.594Z,2.15
2022-12-19T14:54:03.493Z,2.13
2022-12-19T14:54:06.701Z,4.05
2022-12-19T14:54:48.290Z,5.82
2022-12-19T14:58:56.251Z,5.28
2022-12-19T15:01:25.444Z,2.08
2022-12-19T15:04:51.503Z,2.72
2022-12-19T15:07:08.032Z,1.55
2022-12-19T15:11:07.186Z,1.45
2022-12-19T15:14:52.400Z,1.25
2022-12-19T15:16:00.520Z,2.10
2022-12-19T15:18:39.839Z,2.78
2022-12-19T15:21:12.631Z,3.67
2022-12-19T15:23:42.184Z,2.13
2022-12-19T15:26:17.960Z,3.65
2022-12-19T15:28:49.669Z,2.70
2022-12-19T15:31:29.951Z,4.78
2022-12-19T15:34:34.168Z,1.73
2022-12-19T15:36:48.906Z,3.35
2022-12-19T15:39:18.254Z,7.90
2022-12-19T15:41:52.440Z,3.88
2022-12-19T15:44:26.251Z,11.10
2022-12-19T15:46:56.213Z,8.52
2022-12-19T15:49:25.454Z,16.02
2022-12-19T15:51:54.827Z,46.17
2022-12-19T15:57:23.179Z,8.52
2022-12-19T15:59:53.325Z,10.68
2022-12-19T16:02:25.246Z,8.05
2022-12-19T16:05:01.713Z,8.15
2022-12-19T16:07:33.114Z,6.97
2022-12-19T16:10:02.183Z,3.83
2022-12-19T16:12:37.767Z,5.90
2022-12-19T16:15:12.816Z,19.90
2022-12-19T16:17:42.264Z,9.95
2022-12-19T16:20:23.194Z,44.30
2022-12-19T16:22:53.128Z,2.78
2022-12-19T16:25:23.176Z,3.90
2022-12-19T16:27:57.059Z,56.28
2022-12-19T16:30:29.494Z,33.97
2022-12-19T16:32:59.186Z,17.58
2022-12-19T16:38:20.946Z,4.20
2022-12-19T16:40:51.517Z,1.80
2022-12-19T16:43:29.797Z,3.75
2022-12-19T16:46:01.471Z,3.42
2022-12-19T16:48:31.570Z,5.25
2022-12-19T16:51:01.029Z,6.82
2022-12-19T16:53:31.206Z,4.10
2022-12-19T16:56:01.817Z,3.72
2022-12-19T16:58:36.770Z,4.40
2022-12-19T17:01:12.065Z,6.85
2022-12-19T17:03:42.990Z,5.95
2022-12-19T17:06:13.585Z,5.75
2022-12-19T17:08:42.900Z,8.88
2022-12-19T17:11:17.456Z,5.50
2022-12-19T17:13:50.698Z,5.78
2022-12-19T17:16:20.048Z,8.20
2022-12-19T17:18:49.497Z,6.72
2022-12-19T17:21:19.705Z,17.00
2022-12-19T17:23:49.779Z,138.70
2022-12-19T17:26:19.288Z,43.70
2022-12-19T17:28:49.764Z,9.23
2022-12-19T17:31:24.371Z,7.53
2022-12-19T17:33:55.559Z,6.07
2022-12-19T17:36:34.752Z,6.50
2022-12-19T17:39:18.918Z,6.97
2022-12-19T17:41:48.701Z,7.00
2022-12-19T17:44:19.652Z,9.13
2022-12-19T17:46:49.431Z,76.70
2022-12-19T17:49:21.801Z,24.40
2022-12-19T17:51:53.045Z,74.47
2022-12-19T17:54:22.907Z,13.13
2022-12-19T17:56:52.527Z,7.43
2022-12-19T17:59:22.963Z,14.10
2022-12-19T18:01:52.321Z,6.97
2022-12-19T18:04:22.257Z,10.70
2022-12-19T18:06:51.754Z,7.00
2022-12-19T18:09:21.928Z,8.02
2022-12-19T18:11:52.502Z,7.50
2022-12-19T18:14:23.092Z,13.30
2022-12-19T18:16:52.425Z,30.95
2022-12-19T18:19:31.581Z,11.68
2022-12-19T18:22:00.554Z,52.10
2022-12-19T18:24:29.731Z,11.52
2022-12-19T18:26:58.742Z,16.50
2022-12-19T18:29:29.122Z,11.85
2022-12-19T18:31:58.516Z,11.57
2022-12-19T18:34:35.641Z,12.93
2022-12-19T18:37:05.628Z,11.85
2022-12-19T18:39:34.705Z,9.63
2022-12-19T18:42:03.734Z,14.75
2022-12-19T18:44:34.156Z,10.40
2022-12-19T18:47:03.191Z,13.33
2022-12-19T18:49:34.754Z,38.88
2022-12-19T18:52:03.846Z,14.27
2022-12-19T18:54:32.805Z,12.95
2022-12-19T18:57:01.811Z,11.63
2022-12-19T18:59:30.804Z,10.73
2022-12-19T19:02:02.194Z,8.70
2022-12-19T19:04:31.464Z,13.98
2022-12-19T19:07:00.462Z,15.00
2022-12-19T19:09:29.478Z,8.50
2022-12-19T19:12:22.083Z,9.35
2022-12-19T19:14:51.070Z,10.35
2022-12-19T19:17:28.066Z,10.70
2022-12-19T19:19:57.373Z,10.38
2022-12-19T19:22:26.454Z,10.10
2022-12-19T19:24:55.478Z,12.25
2022-12-19T19:27:24.488Z,14.40
2022-12-19T19:29:53.457Z,14.55
2022-12-19T19:32:24.020Z,18.15
2022-12-19T19:34:53.535Z,18.38
2022-12-19T19:37:23.217Z,19.42
2022-12-19T19:39:52.220Z,14.18
2022-12-19T19:42:21.491Z,18.40
2022-12-19T19:44:50.547Z,23.60
2022-12-19T19:47:27.704Z,18.98
2022-12-19T19:49:57.282Z,17.58
2022-12-19T19:52:26.333Z,29.73
2022-12-19T19:54:55.341Z,12.68
2022-12-19T19:57:24.357Z,15.10
2022-12-19T19:59:53.452Z,36.78
2022-12-19T20:02:22.670Z,23.17
2022-12-19T20:04:53.187Z,15.50
2022-12-19T20:07:22.907Z,21.30
2022-12-19T20:09:52.017Z,18.20
2022-12-19T20:12:21.256Z,21.40
2022-12-19T20:14:50.300Z,24.38
2022-12-19T20:17:19.408Z,35.72
2022-12-19T20:19:48.420Z,62.28
2022-12-19T20:22:18.850Z,25.85
2022-12-19T20:24:48.204Z,28.70
2022-12-19T20:27:17.304Z,21.50
2022-12-19T20:29:46.309Z,13.70
2022-12-19T20:32:15.616Z,34.95
2022-12-19T20:34:44.660Z,84.68
2022-12-19T20:37:15.021Z,59.60
2022-12-19T20:39:45.937Z,40.60
2022-12-19T20:42:15.061Z,44.08
2022-12-19T20:44:44.073Z,21.05
2022-12-19T20:47:13.300Z,19.80
2022-12-19T20:49:42.342Z,33.67
2022-12-19T20:52:11.765Z,21.85
2022-12-19T20:54:40.803Z,19.45
2022-12-19T20:57:11.251Z,22.70
2022-12-19T20:59:40.254Z,16.07
2022-12-19T21:02:10.836Z,17.55
2022-12-19T21:04:40.173Z,20.88
2022-12-19T21:07:09.303Z,22.85
2022-12-19T21:09:38.307Z,27.45
2022-12-19T21:12:07.458Z,23.15
2022-12-19T21:14:37.908Z,19.60
2022-12-19T21:17:06.965Z,18.83
2022-12-19T21:19:36.013Z,19.35
2022-12-19T21:22:05.017Z,21.33
2022-12-19T21:24:34.141Z,23.33
2022-12-19T21:27:03.367Z,23.92
2022-12-19T21:29:32.491Z,35.78
2022-12-19T21:32:03.000Z,24.83
2022-12-19T21:34:32.299Z,21.83
2022-12-19T21:37:01.509Z,22.20
2022-12-19T21:39:30.483Z,22.80
2022-12-19T21:41:59.575Z,28.80
2022-12-19T21:44:28.992Z,25.90
2022-12-19T21:46:58.111Z,29.30
2022-12-19T21:49:28.851Z,24.13
2022-12-19T21:51:57.819Z,26.67
2022-12-19T21:54:27.100Z,29.10
2022-12-19T21:56:56.125Z,24.58
2022-12-19T21:59:25.129Z,27.25
2022-12-19T22:01:54.221Z,26.08
2022-12-19T22:04:26.611Z,32.00
2022-12-19T22:06:56.982Z,23.40
2022-12-19T22:09:26.639Z,35.23
2022-12-19T22:11:55.636Z,23.77
2022-12-19T22:14:24.891Z,21.95
2022-12-19T22:16:54.639Z,21.20
2022-12-19T22:19:23.711Z,30.20
2022-12-19T22:21:52.776Z,26.67
2022-12-19T22:24:23.227Z,28.50
2022-12-19T22:26:52.496Z,25.70
2022-12-19T22:29:21.738Z,23.88
2022-12-19T22:31:51.197Z,24.48
2022-12-19T22:34:21.610Z,31.38
2022-12-19T22:36:50.605Z,30.27
2022-12-19T22:39:21.075Z,28.75
2022-12-19T22:41:51.556Z,26.52
2022-12-19T22:44:22.775Z,28.63
2022-12-19T22:46:52.721Z,20.55
2022-12-19T22:49:22.113Z,22.88
2022-12-19T22:51:51.149Z,27.45
2022-12-19T22:54:20.160Z,29.73
2022-12-19T22:56:51.505Z,23.13
2022-12-19T23:01:51.256Z,26.83
2022-12-19T23:04:20.661Z,29.27
2022-12-19T23:06:49.788Z,34.00
2022-12-19T23:09:19.996Z,31.42
2022-12-19T23:11:51.860Z,31.60
2022-12-19T23:14:22.035Z,22.13
2022-12-19T23:16:51.177Z,25.25
2022-12-19T23:19:20.331Z,23.13
2022-12-19T23:21:49.356Z,27.73
2022-12-19T23:24:18.480Z,25.77
2022-12-19T23:26:47.572Z,26.17
2022-12-19T23:29:17.948Z,21.80
2022-12-19T23:31:48.268Z,32.00
2022-12-19T23:34:17.855Z,28.13
2022-12-19T23:39:36.671Z,22.20
2022-12-19T23:42:05.786Z,24.33
2022-12-19T23:44:36.413Z,26.13
2022-12-19T23:47:05.443Z,24.20
2022-12-19T23:49:35.086Z,25.88
2022-12-19T23:52:04.182Z,23.70
2022-12-19T23:54:33.185Z,43.97
2022-12-19T23:57:02.233Z,24.80
2022-12-19T23:59:31.378Z,29.95
